sensor_id;sensor_type;location;lat;lon;timestamp;pressure;altitude;pressure_sealevel;temperature;humidity
57000;BME280;42891;50.006;21.964;2023-01-28T00:01:15;99326.31;;;-0.13;80.76
57000;BME280;42891;50.006;21.964;2023-01-28T00:05:16;99338.97;;;-0.06;80.47
57000;BME280;42891;50.006;21.964;2023-01-28T00:09:16;99316.69;;;-0.33;81.60
57000;BME280;42891;50.006;21.964;2023-01-28T00:13:17;99339.41;;;-0.16;81.28
57000;BME280;42891;50.006;21.964;2023-01-28T00:17:17;99301.59;;;-0.46;82.26
57000;BME280;42891;50.006;21.964;2023-01-28T00:21:18;99336.00;;;-0.19;82.78
57000;BME280;42891;50.006;21.964;2023-01-28T00:25:18;99321.94;;;-0.35;81.90
57000;BME280;42891;50.006;21.964;2023-01-28T00:29:18;99340.19;;;-0.14;82.47
57000;BME280;42891;50.006;21.964;2023-01-28T00:33:19;99344.66;;;-0.18;82.00
57000;BME280;42891;50.006;21.964;2023-01-28T00:37:19;99326.66;;;-0.23;82.16
57000;BME280;42891;50.006;21.964;2023-01-28T00:41:21;99336.09;;;-0.20;81.72
57000;BME280;42891;50.006;21.964;2023-01-28T00:45:22;99340.72;;;-0.28;81.84
57000;BME280;42891;50.006;21.964;2023-01-28T00:49:22;99343.81;;;-0.19;82.06
57000;BME280;42891;50.006;21.964;2023-01-28T00:53:23;99356.59;;;-0.14;82.16
57000;BME280;42891;50.006;21.964;2023-01-28T00:57:23;99342.53;;;-0.30;81.84
57000;BME280;42891;50.006;21.964;2023-01-28T01:01:25;99336.13;;;-0.22;81.63
57000;BME280;42891;50.006;21.964;2023-01-28T01:05:26;99352.44;;;-0.18;80.93
57000;BME280;42891;50.006;21.964;2023-01-28T01:09:28;99355.41;;;-0.05;81.27
57000;BME280;42891;50.006;21.964;2023-01-28T01:13:29;99362.72;;;-0.15;80.61
57000;BME280;42891;50.006;21.964;2023-01-28T01:17:30;99364.00;;;-0.27;80.26
57000;BME280;42891;50.006;21.964;2023-01-28T01:21:30;99363.13;;;-0.26;80.62
57000;BME280;42891;50.006;21.964;2023-01-28T01:25:31;99368.91;;;-0.19;80.06
57000;BME280;42891;50.006;21.964;2023-01-28T01:29:31;99367.16;;;-0.19;80.13
57000;BME280;42891;50.006;21.964;2023-01-28T01:33:33;99360.28;;;-0.20;80.21
57000;BME280;42891;50.006;21.964;2023-01-28T01:37:34;99367.34;;;-0.23;80.15
57000;BME280;42891;50.006;21.964;2023-01-28T01:41:34;99378.03;;;-0.09;79.66
57000;BME280;42891;50.006;21.964;2023-01-28T01:45:35;99362.53;;;-0.10;79.39
57000;BME280;42891;50.006;21.964;2023-01-28T01:49:35;99368.94;;;0.03;78.98
57000;BME280;42891;50.006;21.964;2023-01-28T01:53:41;99361.38;;;-0.03;79.24
57000;BME280;42891;50.006;21.964;2023-01-28T01:57:44;99372.16;;;0.10;78.86
57000;BME280;42891;50.006;21.964;2023-01-28T02:01:45;99376.47;;;0.09;79.03
57000;BME280;42891;50.006;21.964;2023-01-28T02:05:48;99378.22;;;0.09;78.80
57000;BME280;42891;50.006;21.964;2023-01-28T02:09:49;99379.44;;;0.00;78.67
57000;BME280;42891;50.006;21.964;2023-01-28T02:13:51;99365.53;;;0.01;78.85
57000;BME280;42891;50.006;21.964;2023-01-28T02:17:53;99372.72;;;-0.06;78.43
57000;BME280;42891;50.006;21.964;2023-01-28T02:22:24;99366.47;;;0.00;78.41
57000;BME280;42891;50.006;21.964;2023-01-28T02:26:46;99378.84;;;0.15;78.17
57000;BME280;42891;50.006;21.964;2023-01-28T02:35:38;99374.19;;;0.02;78.28
57000;BME280;42891;50.006;21.964;2023-01-28T02:39:45;99370.91;;;-0.04;77.85
57000;BME280;42891;50.006;21.964;2023-01-28T02:43:47;99372.78;;;-0.07;77.72
57000;BME280;42891;50.006;21.964;2023-01-28T02:47:47;99381.19;;;-0.01;78.48
57000;BME280;42891;50.006;21.964;2023-01-28T02:52:00;99382.56;;;0.08;77.79
57000;BME280;42891;50.006;21.964;2023-01-28T02:56:28;99361.75;;;-0.12;77.91
57000;BME280;42891;50.006;21.964;2023-01-28T03:00:45;99372.50;;;0.01;77.73
57000;BME280;42891;50.006;21.964;2023-01-28T03:09:04;99370.03;;;-0.03;77.73
57000;BME280;42891;50.006;21.964;2023-01-28T03:13:25;99366.75;;;-0.08;77.19
57000;BME280;42891;50.006;21.964;2023-01-28T03:17:48;99383.84;;;-0.02;77.07
57000;BME280;42891;50.006;21.964;2023-01-28T03:22:10;99378.94;;;-0.10;77.60
57000;BME280;42891;50.006;21.964;2023-01-28T03:26:30;99374.78;;;0.08;77.19
57000;BME280;42891;50.006;21.964;2023-01-28T03:31:02;99375.38;;;-0.07;77.03
57000;BME280;42891;50.006;21.964;2023-01-28T03:35:23;99374.91;;;0.05;77.14
57000;BME280;42891;50.006;21.964;2023-01-28T03:39:43;99345.91;;;-0.28;76.63
57000;BME280;42891;50.006;21.964;2023-01-28T03:43:43;99362.28;;;-0.26;76.30
57000;BME280;42891;50.006;21.964;2023-01-28T03:47:44;99373.06;;;-0.37;76.80
57000;BME280;42891;50.006;21.964;2023-01-28T03:51:44;99376.06;;;-0.48;76.67
57000;BME280;42891;50.006;21.964;2023-01-28T03:55:47;99383.31;;;-0.34;76.87
57000;BME280;42891;50.006;21.964;2023-01-28T03:59:48;99383.06;;;-0.28;76.99
57000;BME280;42891;50.006;21.964;2023-01-28T04:03:48;99377.88;;;-0.28;76.27
57000;BME280;42891;50.006;21.964;2023-01-28T04:07:49;99370.47;;;-0.37;76.35
57000;BME280;42891;50.006;21.964;2023-01-28T04:11:50;99388.38;;;-0.31;76.92
57000;BME280;42891;50.006;21.964;2023-01-28T04:15:50;99387.81;;;-0.39;76.09
57000;BME280;42891;50.006;21.964;2023-01-28T04:19:51;99386.88;;;-0.60;76.57
57000;BME280;42891;50.006;21.964;2023-01-28T04:23:51;99393.25;;;-0.45;76.89
57000;BME280;42891;50.006;21.964;2023-01-28T04:27:51;99378.78;;;-0.51;76.26
57000;BME280;42891;50.006;21.964;2023-01-28T04:31:52;99391.16;;;-0.36;76.03
57000;BME280;42891;50.006;21.964;2023-01-28T04:35:52;99400.03;;;-0.41;76.08
57000;BME280;42891;50.006;21.964;2023-01-28T04:39:53;99397.56;;;-0.46;76.34
57000;BME280;42891;50.006;21.964;2023-01-28T04:43:53;99406.84;;;-0.39;76.25
57000;BME280;42891;50.006;21.964;2023-01-28T04:47:53;99404.75;;;-0.29;75.81
57000;BME280;42891;50.006;21.964;2023-01-28T04:51:53;99397.75;;;-0.50;74.68
57000;BME280;42891;50.006;21.964;2023-01-28T04:55:54;99398.16;;;-0.38;74.58
57000;BME280;42891;50.006;21.964;2023-01-28T04:59:54;99424.50;;;-0.25;74.50
57000;BME280;42891;50.006;21.964;2023-01-28T05:03:54;99389.78;;;-0.46;74.09
57000;BME280;42891;50.006;21.964;2023-01-28T05:07:57;99425.13;;;-0.18;74.21
57000;BME280;42891;50.006;21.964;2023-01-28T05:11:57;99405.84;;;-0.35;74.01
57000;BME280;42891;50.006;21.964;2023-01-28T05:15:57;99423.97;;;-0.11;74.75
57000;BME280;42891;50.006;21.964;2023-01-28T05:19:58;99423.94;;;-0.09;73.65
57000;BME280;42891;50.006;21.964;2023-01-28T05:23:58;99428.44;;;-0.14;74.01
57000;BME280;42891;50.006;21.964;2023-01-28T05:27:58;99423.19;;;-0.13;73.17
57000;BME280;42891;50.006;21.964;2023-01-28T05:31:58;99396.34;;;-0.36;73.46
57000;BME280;42891;50.006;21.964;2023-01-28T05:35:59;99415.28;;;-0.33;73.07
57000;BME280;42891;50.006;21.964;2023-01-28T05:39:59;99427.19;;;-0.28;73.39
57000;BME280;42891;50.006;21.964;2023-01-28T05:43:59;99422.81;;;-0.26;72.77
57000;BME280;42891;50.006;21.964;2023-01-28T05:48:00;99435.66;;;-0.23;73.25
57000;BME280;42891;50.006;21.964;2023-01-28T05:52:00;99428.81;;;-0.25;73.01
57000;BME280;42891;50.006;21.964;2023-01-28T05:56:01;99432.78;;;-0.15;72.88
57000;BME280;42891;50.006;21.964;2023-01-28T06:00:02;99445.16;;;-0.22;73.62
57000;BME280;42891;50.006;21.964;2023-01-28T06:04:04;99421.16;;;-0.52;72.93
57000;BME280;42891;50.006;21.964;2023-01-28T06:08:05;99426.13;;;-0.46;73.45
57000;BME280;42891;50.006;21.964;2023-01-28T06:12:05;99442.22;;;-0.36;73.89
57000;BME280;42891;50.006;21.964;2023-01-28T06:16:07;99452.88;;;-0.44;73.10
57000;BME280;42891;50.006;21.964;2023-01-28T06:20:08;99447.34;;;-0.35;73.84
57000;BME280;42891;50.006;21.964;2023-01-28T06:24:08;99432.69;;;-0.36;73.31
57000;BME280;42891;50.006;21.964;2023-01-28T06:28:09;99442.00;;;-0.30;73.06
57000;BME280;42891;50.006;21.964;2023-01-28T06:32:09;99454.13;;;-0.30;73.07
57000;BME280;42891;50.006;21.964;2023-01-28T06:36:09;99443.25;;;-0.42;73.36
57000;BME280;42891;50.006;21.964;2023-01-28T06:40:10;99463.31;;;-0.22;73.36
57000;BME280;42891;50.006;21.964;2023-01-28T06:44:11;99474.88;;;-0.30;73.09
57000;BME280;42891;50.006;21.964;2023-01-28T06:48:11;99479.97;;;-0.27;73.72
57000;BME280;42891;50.006;21.964;2023-01-28T06:52:11;99483.38;;;-0.27;72.64
57000;BME280;42891;50.006;21.964;2023-01-28T06:56:12;99482.44;;;-0.24;73.09
57000;BME280;42891;50.006;21.964;2023-01-28T07:00:12;99482.31;;;-0.21;72.76
57000;BME280;42891;50.006;21.964;2023-01-28T07:04:15;99494.97;;;-0.12;72.55
57000;BME280;42891;50.006;21.964;2023-01-28T07:08:15;99469.56;;;-0.27;72.79
57000;BME280;42891;50.006;21.964;2023-01-28T07:12:15;99487.69;;;-0.26;72.97
57000;BME280;42891;50.006;21.964;2023-01-28T07:16:16;99502.81;;;-0.13;72.80
57000;BME280;42891;50.006;21.964;2023-01-28T07:20:17;99492.25;;;-0.09;72.18
57000;BME280;42891;50.006;21.964;2023-01-28T07:24:17;99498.25;;;-0.07;72.47
57000;BME280;42891;50.006;21.964;2023-01-28T07:28:17;99473.69;;;-0.22;72.38
57000;BME280;42891;50.006;21.964;2023-01-28T07:32:20;99497.31;;;-0.06;71.97
57000;BME280;42891;50.006;21.964;2023-01-28T07:36:20;99503.31;;;-0.04;72.04
57000;BME280;42891;50.006;21.964;2023-01-28T07:40:21;99517.66;;;0.07;71.28
57000;BME280;42891;50.006;21.964;2023-01-28T07:44:21;99515.72;;;0.12;70.81
57000;BME280;42891;50.006;21.964;2023-01-28T07:48:21;99507.25;;;0.07;71.62
57000;BME280;42891;50.006;21.964;2023-01-28T07:52:21;99519.06;;;0.15;70.77
57000;BME280;42891;50.006;21.964;2023-01-28T07:56:22;99524.31;;;0.14;72.05
57000;BME280;42891;50.006;21.964;2023-01-28T08:00:24;99521.88;;;0.09;70.71
57000;BME280;42891;50.006;21.964;2023-01-28T08:04:25;99507.38;;;0.04;71.51
57000;BME280;42891;50.006;21.964;2023-01-28T08:08:26;99519.41;;;0.06;71.47
57000;BME280;42891;50.006;21.964;2023-01-28T08:12:26;99523.28;;;0.18;71.45
57000;BME280;42891;50.006;21.964;2023-01-28T08:16:26;99531.63;;;0.03;71.84
57000;BME280;42891;50.006;21.964;2023-01-28T08:20:28;99524.47;;;0.09;71.73
57000;BME280;42891;50.006;21.964;2023-01-28T08:24:29;99539.66;;;0.20;73.84
57000;BME280;42891;50.006;21.964;2023-01-28T08:28:29;99537.91;;;0.21;70.97
57000;BME280;42891;50.006;21.964;2023-01-28T08:32:29;99538.97;;;0.39;70.06
57000;BME280;42891;50.006;21.964;2023-01-28T08:36:30;99544.66;;;0.48;70.12
57000;BME280;42891;50.006;21.964;2023-01-28T08:40:30;99537.72;;;0.49;70.81
57000;BME280;42891;50.006;21.964;2023-01-28T08:44:30;99536.97;;;0.45;70.48
57000;BME280;42891;50.006;21.964;2023-01-28T08:48:31;99532.69;;;0.44;70.62
57000;BME280;42891;50.006;21.964;2023-01-28T08:52:31;99530.41;;;0.37;71.52
57000;BME280;42891;50.006;21.964;2023-01-28T08:56:31;99520.59;;;0.21;70.95
57000;BME280;42891;50.006;21.964;2023-01-28T09:00:32;99530.84;;;0.24;71.40
57000;BME280;42891;50.006;21.964;2023-01-28T09:04:33;99550.56;;;0.30;71.94
57000;BME280;42891;50.006;21.964;2023-01-28T09:08:33;99547.13;;;0.29;71.97
57000;BME280;42891;50.006;21.964;2023-01-28T09:12:34;99541.88;;;0.31;71.13
57000;BME280;42891;50.006;21.964;2023-01-28T09:16:34;99538.97;;;0.15;71.86
57000;BME280;42891;50.006;21.964;2023-01-28T09:20:36;99556.25;;;0.40;72.13
57000;BME280;42891;50.006;21.964;2023-01-28T09:24:36;99560.25;;;0.48;72.46
57000;BME280;42891;50.006;21.964;2023-01-28T09:28:37;99555.97;;;0.47;71.94
57000;BME280;42891;50.006;21.964;2023-01-28T09:32:53;99548.41;;;0.41;71.82
57000;BME280;42891;50.006;21.964;2023-01-28T09:36:54;99539.44;;;0.26;71.38
57000;BME280;42891;50.006;21.964;2023-01-28T09:40:54;99549.97;;;0.45;72.38
57000;BME280;42891;50.006;21.964;2023-01-28T09:45:20;99547.19;;;0.50;72.83
57000;BME280;42891;50.006;21.964;2023-01-28T09:49:31;99533.69;;;0.64;72.44
57000;BME280;42891;50.006;21.964;2023-01-28T09:53:37;99533.50;;;0.68;71.47
57000;BME280;42891;50.006;21.964;2023-01-28T09:57:44;99533.19;;;0.76;71.60
57000;BME280;42891;50.006;21.964;2023-01-28T10:01:55;99531.31;;;0.80;70.82
57000;BME280;42891;50.006;21.964;2023-01-28T10:06:21;99509.78;;;0.76;72.17
57000;BME280;42891;50.006;21.964;2023-01-28T10:10:28;99519.97;;;0.82;70.94
57000;BME280;42891;50.006;21.964;2023-01-28T10:15:08;99523.09;;;0.91;70.93
57000;BME280;42891;50.006;21.964;2023-01-28T10:19:20;99515.84;;;0.77;70.34
57000;BME280;42891;50.006;21.964;2023-01-28T10:27:36;99504.84;;;0.70;70.71
57000;BME280;42891;50.006;21.964;2023-01-28T10:31:40;99527.50;;;0.89;70.59
57000;BME280;42891;50.006;21.964;2023-01-28T10:35:42;99519.91;;;0.84;70.54
57000;BME280;42891;50.006;21.964;2023-01-28T10:39:43;99500.69;;;0.66;70.43
57000;BME280;42891;50.006;21.964;2023-01-28T10:43:44;99519.53;;;0.71;70.10
57000;BME280;42891;50.006;21.964;2023-01-28T10:48:25;99518.25;;;0.81;70.79
57000;BME280;42891;50.006;21.964;2023-01-28T10:52:25;99514.00;;;1.01;70.75
57000;BME280;42891;50.006;21.964;2023-01-28T10:56:29;99491.69;;;0.95;70.33
57000;BME280;42891;50.006;21.964;2023-01-28T11:00:34;99511.34;;;1.02;69.90
57000;BME280;42891;50.006;21.964;2023-01-28T11:04:36;99506.13;;;1.02;70.51
57000;BME280;42891;50.006;21.964;2023-01-28T11:08:43;99497.50;;;1.02;69.23
57000;BME280;42891;50.006;21.964;2023-01-28T11:12:54;99499.66;;;1.13;69.90
57000;BME280;42891;50.006;21.964;2023-01-28T11:16:56;99496.84;;;1.17;69.37
57000;BME280;42891;50.006;21.964;2023-01-28T11:20:59;99479.75;;;1.12;69.02
57000;BME280;42891;50.006;21.964;2023-01-28T11:25:13;99460.56;;;0.94;70.43
57000;BME280;42891;50.006;21.964;2023-01-28T11:29:27;99493.00;;;1.26;68.29
57000;BME280;42891;50.006;21.964;2023-01-28T11:33:58;99493.88;;;1.27;68.40
57000;BME280;42891;50.006;21.964;2023-01-28T11:37:58;99490.75;;;1.39;67.22
57000;BME280;42891;50.006;21.964;2023-01-28T11:46:22;99481.63;;;1.29;67.84
57000;BME280;42891;50.006;21.964;2023-01-28T11:50:42;99473.97;;;1.26;67.21
57000;BME280;42891;50.006;21.964;2023-01-28T12:03:43;99483.78;;;1.19;66.58
57000;BME280;42891;50.006;21.964;2023-01-28T12:07:53;99478.66;;;1.17;66.42
57000;BME280;42891;50.006;21.964;2023-01-28T12:24:54;99479.38;;;1.42;65.67
57000;BME280;42891;50.006;21.964;2023-01-28T12:29:06;99479.56;;;1.37;66.02
57000;BME280;42891;50.006;21.964;2023-01-28T12:33:38;99481.69;;;1.27;65.72
57000;BME280;42891;50.006;21.964;2023-01-28T12:42:12;99481.63;;;1.08;66.40
57000;BME280;42891;50.006;21.964;2023-01-28T12:50:52;99494.06;;;1.22;66.90
57000;BME280;42891;50.006;21.964;2023-01-28T12:59:31;99470.59;;;1.24;66.53
57000;BME280;42891;50.006;21.964;2023-01-28T13:03:47;99481.53;;;1.32;67.77
57000;BME280;42891;50.006;21.964;2023-01-28T13:08:02;99464.41;;;1.26;66.88
57000;BME280;42891;50.006;21.964;2023-01-28T13:12:04;99498.22;;;1.47;66.30
57000;BME280;42891;50.006;21.964;2023-01-28T13:16:08;99492.09;;;1.48;66.35
57000;BME280;42891;50.006;21.964;2023-01-28T13:20:15;99489.88;;;1.39;66.18
57000;BME280;42891;50.006;21.964;2023-01-28T13:28:30;99501.41;;;1.53;64.42
57000;BME280;42891;50.006;21.964;2023-01-28T13:32:34;99511.44;;;1.63;65.20
57000;BME280;42891;50.006;21.964;2023-01-28T13:36:45;99504.81;;;1.56;65.21
57000;BME280;42891;50.006;21.964;2023-01-28T13:40:58;99519.38;;;1.60;64.11
57000;BME280;42891;50.006;21.964;2023-01-28T13:49:20;99504.66;;;1.59;65.69
57000;BME280;42891;50.006;21.964;2023-01-28T13:53:35;99517.59;;;1.60;66.66
57000;BME280;42891;50.006;21.964;2023-01-28T13:57:55;99524.50;;;1.61;64.91
57000;BME280;42891;50.006;21.964;2023-01-28T14:07:03;99528.16;;;1.78;64.80
57000;BME280;42891;50.006;21.964;2023-01-28T14:19:45;99524.63;;;1.58;65.71
57000;BME280;42891;50.006;21.964;2023-01-28T14:23:54;99528.19;;;1.76;65.86
57000;BME280;42891;50.006;21.964;2023-01-28T14:27:55;99533.16;;;1.62;65.89
57000;BME280;42891;50.006;21.964;2023-01-28T14:32:02;99531.34;;;1.64;66.07
57000;BME280;42891;50.006;21.964;2023-01-28T14:36:03;99542.28;;;1.51;65.50
57000;BME280;42891;50.006;21.964;2023-01-28T14:40:06;99536.41;;;1.67;65.35
57000;BME280;42891;50.006;21.964;2023-01-28T14:44:21;99539.25;;;1.61;65.95
57000;BME280;42891;50.006;21.964;2023-01-28T14:57:27;99552.22;;;1.62;66.20
57000;BME280;42891;50.006;21.964;2023-01-28T15:01:33;99541.47;;;1.49;67.43
57000;BME280;42891;50.006;21.964;2023-01-28T15:05:34;99560.22;;;1.58;66.47
57000;BME280;42891;50.006;21.964;2023-01-28T15:09:34;99554.19;;;1.57;65.93
57000;BME280;42891;50.006;21.964;2023-01-28T15:14:00;99548.78;;;1.41;66.65
57000;BME280;42891;50.006;21.964;2023-01-28T15:18:05;99564.84;;;1.51;66.60
57000;BME280;42891;50.006;21.964;2023-01-28T15:22:07;99563.03;;;1.53;66.39
57000;BME280;42891;50.006;21.964;2023-01-28T15:30:25;99570.72;;;1.56;66.88
57000;BME280;42891;50.006;21.964;2023-01-28T15:34:26;99564.66;;;1.56;66.73
57000;BME280;42891;50.006;21.964;2023-01-28T15:38:29;99565.50;;;1.56;66.49
57000;BME280;42891;50.006;21.964;2023-01-28T15:42:29;99581.66;;;1.64;66.22
57000;BME280;42891;50.006;21.964;2023-01-28T15:46:31;99575.19;;;1.52;66.42
57000;BME280;42891;50.006;21.964;2023-01-28T15:50:31;99581.31;;;1.51;66.72
57000;BME280;42891;50.006;21.964;2023-01-28T15:54:37;99571.94;;;1.47;66.92
57000;BME280;42891;50.006;21.964;2023-01-28T15:58:38;99587.19;;;1.34;68.24
57000;BME280;42891;50.006;21.964;2023-01-28T16:02:46;99577.25;;;1.44;67.50
57000;BME280;42891;50.006;21.964;2023-01-28T16:06:47;99580.19;;;1.36;67.96
57000;BME280;42891;50.006;21.964;2023-01-28T16:10:52;99591.31;;;1.40;68.35
57000;BME280;42891;50.006;21.964;2023-01-28T16:15:00;99582.34;;;1.27;68.72
57000;BME280;42891;50.006;21.964;2023-01-28T16:19:03;99596.22;;;1.48;68.66
57000;BME280;42891;50.006;21.964;2023-01-28T16:23:19;99592.56;;;1.52;68.52
57000;BME280;42891;50.006;21.964;2023-01-28T16:27:23;99593.91;;;1.40;68.95
57000;BME280;42891;50.006;21.964;2023-01-28T16:31:23;99601.16;;;1.33;69.25
57000;BME280;42891;50.006;21.964;2023-01-28T16:35:26;99602.19;;;1.50;69.15
57000;BME280;42891;50.006;21.964;2023-01-28T16:39:30;99604.00;;;1.48;70.12
57000;BME280;42891;50.006;21.964;2023-01-28T16:43:30;99607.94;;;1.36;70.05
57000;BME280;42891;50.006;21.964;2023-01-28T16:47:30;99612.38;;;1.34;69.95
57000;BME280;42891;50.006;21.964;2023-01-28T16:51:31;99611.50;;;1.35;70.20
57000;BME280;42891;50.006;21.964;2023-01-28T16:55:31;99610.09;;;1.26;70.74
57000;BME280;42891;50.006;21.964;2023-01-28T16:59:31;99594.81;;;1.18;70.91
57000;BME280;42891;50.006;21.964;2023-01-28T17:03:32;99610.75;;;1.31;70.76
57000;BME280;42891;50.006;21.964;2023-01-28T17:07:32;99625.41;;;1.34;70.64
57000;BME280;42891;50.006;21.964;2023-01-28T17:11:33;99632.78;;;1.23;71.17
57000;BME280;42891;50.006;21.964;2023-01-28T17:15:34;99625.13;;;1.19;71.40
57000;BME280;42891;50.006;21.964;2023-01-28T17:19:35;99630.97;;;1.25;71.64
57000;BME280;42891;50.006;21.964;2023-01-28T17:23:35;99625.59;;;1.29;71.45
57000;BME280;42891;50.006;21.964;2023-01-28T17:27:35;99609.53;;;1.18;72.75
57000;BME280;42891;50.006;21.964;2023-01-28T17:31:36;99635.03;;;1.32;72.54
57000;BME280;42891;50.006;21.964;2023-01-28T17:35:36;99637.38;;;1.16;72.13
57000;BME280;42891;50.006;21.964;2023-01-28T17:39:36;99600.97;;;1.16;72.26
57000;BME280;42891;50.006;21.964;2023-01-28T17:43:37;99618.88;;;1.24;72.35
57000;BME280;42891;50.006;21.964;2023-01-28T17:47:37;99638.06;;;1.21;71.97
57000;BME280;42891;50.006;21.964;2023-01-28T17:51:37;99633.81;;;1.18;72.34
57000;BME280;42891;50.006;21.964;2023-01-28T17:55:37;99648.47;;;1.21;72.18
57000;BME280;42891;50.006;21.964;2023-01-28T17:59:38;99638.66;;;1.28;72.55
57000;BME280;42891;50.006;21.964;2023-01-28T18:03:38;99649.66;;;1.34;71.82
57000;BME280;42891;50.006;21.964;2023-01-28T18:07:38;99644.22;;;1.18;71.87
57000;BME280;42891;50.006;21.964;2023-01-28T18:11:39;99640.66;;;1.21;72.28
57000;BME280;42891;50.006;21.964;2023-01-28T18:15:39;99652.38;;;1.31;72.63
57000;BME280;42891;50.006;21.964;2023-01-28T18:19:43;99664.91;;;1.22;72.30
57000;BME280;42891;50.006;21.964;2023-01-28T18:23:43;99660.53;;;1.22;72.26
57000;BME280;42891;50.006;21.964;2023-01-28T18:27:44;99664.69;;;1.28;72.27
57000;BME280;42891;50.006;21.964;2023-01-28T18:31:45;99652.03;;;1.18;72.70
57000;BME280;42891;50.006;21.964;2023-01-28T18:35:47;99659.56;;;1.25;72.26
57000;BME280;42891;50.006;21.964;2023-01-28T18:39:47;99660.72;;;1.17;72.84
57000;BME280;42891;50.006;21.964;2023-01-28T18:43:48;99662.91;;;1.28;72.75
57000;BME280;42891;50.006;21.964;2023-01-28T18:47:48;99664.78;;;1.25;72.96
57000;BME280;42891;50.006;21.964;2023-01-28T18:51:48;99654.91;;;1.11;73.26
57000;BME280;42891;50.006;21.964;2023-01-28T18:55:48;99660.53;;;1.22;73.55
57000;BME280;42891;50.006;21.964;2023-01-28T18:59:49;99663.41;;;1.16;73.44
57000;BME280;42891;50.006;21.964;2023-01-28T19:03:49;99663.22;;;1.21;73.49
57000;BME280;42891;50.006;21.964;2023-01-28T19:07:49;99660.13;;;1.11;73.68
57000;BME280;42891;50.006;21.964;2023-01-28T19:11:50;99663.47;;;1.14;73.89
57000;BME280;42891;50.006;21.964;2023-01-28T19:15:50;99673.38;;;1.27;73.57
57000;BME280;42891;50.006;21.964;2023-01-28T19:19:50;99668.91;;;1.30;73.95
57000;BME280;42891;50.006;21.964;2023-01-28T19:27:55;99656.59;;;0.90;73.91
57000;BME280;42891;50.006;21.964;2023-01-28T19:31:55;99662.84;;;1.08;74.26
57000;BME280;42891;50.006;21.964;2023-01-28T19:35:59;99671.78;;;1.00;74.12
57000;BME280;42891;50.006;21.964;2023-01-28T19:39:59;99681.88;;;1.08;74.35
57000;BME280;42891;50.006;21.964;2023-01-28T19:44:00;99689.22;;;1.21;74.15
57000;BME280;42891;50.006;21.964;2023-01-28T19:48:00;99674.88;;;1.10;74.53
57000;BME280;42891;50.006;21.964;2023-01-28T19:52:00;99669.91;;;1.04;74.91
57000;BME280;42891;50.006;21.964;2023-01-28T19:56:03;99682.50;;;1.15;75.03
57000;BME280;42891;50.006;21.964;2023-01-28T20:00:04;99684.22;;;1.16;76.12
57000;BME280;42891;50.006;21.964;2023-01-28T20:04:05;99680.72;;;1.17;76.46
57000;BME280;42891;50.006;21.964;2023-01-28T20:08:05;99671.75;;;1.02;77.06
57000;BME280;42891;50.006;21.964;2023-01-28T20:12:05;99685.41;;;1.07;77.85
57000;BME280;42891;50.006;21.964;2023-01-28T20:16:17;99658.13;;;0.95;78.47
57000;BME280;42891;50.006;21.964;2023-01-28T20:20:18;99661.88;;;0.88;79.14
57000;BME280;42891;50.006;21.964;2023-01-28T20:24:18;99683.72;;;1.06;79.23
57000;BME280;42891;50.006;21.964;2023-01-28T20:28:20;99692.06;;;1.14;79.50
57000;BME280;42891;50.006;21.964;2023-01-28T20:32:20;99688.56;;;0.93;79.74
57000;BME280;42891;50.006;21.964;2023-01-28T20:36:22;99690.38;;;1.13;79.76
57000;BME280;42891;50.006;21.964;2023-01-28T20:40:22;99704.41;;;1.09;80.37
57000;BME280;42891;50.006;21.964;2023-01-28T20:44:22;99708.78;;;1.09;80.19
57000;BME280;42891;50.006;21.964;2023-01-28T20:48:22;99707.41;;;0.98;80.76
57000;BME280;42891;50.006;21.964;2023-01-28T20:52:23;99690.63;;;1.07;80.54
57000;BME280;42891;50.006;21.964;2023-01-28T20:56:24;99709.47;;;1.12;80.51
57000;BME280;42891;50.006;21.964;2023-01-28T21:00:25;99708.31;;;1.21;80.15
57000;BME280;42891;50.006;21.964;2023-01-28T21:04:25;99695.38;;;1.18;79.96
57000;BME280;42891;50.006;21.964;2023-01-28T21:08:25;99720.13;;;1.06;81.23
57000;BME280;42891;50.006;21.964;2023-01-28T21:12:25;99720.69;;;1.14;81.36
57000;BME280;42891;50.006;21.964;2023-01-28T21:16:29;99723.28;;;1.14;81.89
57000;BME280;42891;50.006;21.964;2023-01-28T21:20:30;99722.84;;;1.03;83.01
57000;BME280;42891;50.006;21.964;2023-01-28T21:24:34;99727.69;;;1.12;83.32
57000;BME280;42891;50.006;21.964;2023-01-28T21:28:34;99723.28;;;1.14;83.58
57000;BME280;42891;50.006;21.964;2023-01-28T21:32:34;99713.56;;;1.19;83.47
57000;BME280;42891;50.006;21.964;2023-01-28T21:36:34;99701.88;;;1.08;83.52
57000;BME280;42891;50.006;21.964;2023-01-28T21:40:36;99720.97;;;1.07;83.87
57000;BME280;42891;50.006;21.964;2023-01-28T21:44:37;99715.75;;;1.07;84.41
57000;BME280;42891;50.006;21.964;2023-01-28T21:48:37;99725.41;;;1.05;83.64
57000;BME280;42891;50.006;21.964;2023-01-28T21:52:37;99723.16;;;1.17;82.86
57000;BME280;42891;50.006;21.964;2023-01-28T21:56:37;99723.50;;;1.08;82.86
57000;BME280;42891;50.006;21.964;2023-01-28T22:00:38;99732.34;;;1.26;82.81
57000;BME280;42891;50.006;21.964;2023-01-28T22:04:40;99729.06;;;1.23;82.54
57000;BME280;42891;50.006;21.964;2023-01-28T22:08:41;99728.38;;;1.17;82.67
57000;BME280;42891;50.006;21.964;2023-01-28T22:12:41;99713.22;;;1.05;83.01
57000;BME280;42891;50.006;21.964;2023-01-28T22:16:42;99720.50;;;1.19;82.47
57000;BME280;42891;50.006;21.964;2023-01-28T22:20:42;99721.25;;;1.23;82.81
57000;BME280;42891;50.006;21.964;2023-01-28T22:24:43;99716.94;;;1.22;82.63
57000;BME280;42891;50.006;21.964;2023-01-28T22:28:44;99719.25;;;1.29;82.67
57000;BME280;42891;50.006;21.964;2023-01-28T22:32:44;99698.84;;;1.18;82.88
57000;BME280;42891;50.006;21.964;2023-01-28T22:36:45;99721.59;;;1.35;82.58
57000;BME280;42891;50.006;21.964;2023-01-28T22:40:45;99710.38;;;1.35;82.89
57000;BME280;42891;50.006;21.964;2023-01-28T22:44:45;99715.81;;;1.05;83.41
57000;BME280;42891;50.006;21.964;2023-01-28T22:48:46;99688.56;;;1.15;83.58
57000;BME280;42891;50.006;21.964;2023-01-28T22:52:46;99710.75;;;1.02;84.00
57000;BME280;42891;50.006;21.964;2023-01-28T22:56:47;99717.94;;;0.95;84.07